createdAt,value
2018-05-29T00:00:22.019Z,0.00
2018-05-29T00:01:21.945Z,0.00
2018-05-29T00:02:21.868Z,0.00
2018-05-29T00:03:21.795Z,0.00
2018-05-29T00:04:21.719Z,0.00
2018-05-29T00:05:21.644Z,0.00
2018-05-29T00:06:21.569Z,0.00
2018-05-29T00:07:21.508Z,0.00
2018-05-29T00:08:21.419Z,0.00
2018-05-29T00:09:21.345Z,0.00
2018-05-29T00:10:21.269Z,0.00
2018-05-29T00:11:21.200Z,0.00
2018-05-29T00:12:21.120Z,0.00
2018-05-29T00:13:21.046Z,0.00
2018-05-29T00:14:20.970Z,0.00
2018-05-29T00:15:20.896Z,0.00
2018-05-29T00:16:20.820Z,0.00
2018-05-29T00:17:20.747Z,0.00
2018-05-29T00:18:20.670Z,0.00
2018-05-29T00:19:20.596Z,0.00
2018-05-29T00:20:20.521Z,0.00
2018-05-29T00:21:20.446Z,0.00
2018-05-29T00:22:20.372Z,0.00
2018-05-29T00:23:20.297Z,0.00
2018-05-29T00:24:20.234Z,0.00
2018-05-29T00:25:20.146Z,0.00
2018-05-29T00:26:20.073Z,0.00
2018-05-29T00:27:19.998Z,0.00
2018-05-29T00:28:19.935Z,0.00
2018-05-29T00:29:19.848Z,0.00
2018-05-29T00:30:19.773Z,0.00
2018-05-29T00:31:19.698Z,0.00
2018-05-29T00:32:19.636Z,0.00
2018-05-29T00:33:19.547Z,0.00
2018-05-29T00:34:19.473Z,0.00
2018-05-29T00:35:19.398Z,0.00
2018-05-29T00:36:19.324Z,0.00
2018-05-29T00:37:19.249Z,0.00
2018-05-29T00:38:19.173Z,0.00
2018-05-29T00:39:19.098Z,0.00
2018-05-29T00:40:19.024Z,0.00
2018-05-29T00:41:18.948Z,0.00
2018-05-29T00:42:18.866Z,0.00
2018-05-29T00:43:18.797Z,0.00
2018-05-29T00:44:18.724Z,0.00
2018-05-29T00:45:18.637Z,0.00
2018-05-29T00:46:18.561Z,0.00
2018-05-29T00:47:18.499Z,0.00
2018-05-29T00:48:18.416Z,0.00
2018-05-29T00:49:18.341Z,0.00
2018-05-29T00:50:18.262Z,0.00
2018-05-29T00:51:18.188Z,0.00
2018-05-29T00:52:18.113Z,0.00
2018-05-29T00:53:18.038Z,0.00
2018-05-29T00:54:17.963Z,0.00
2018-05-29T00:55:17.888Z,0.00
2018-05-29T00:56:17.814Z,0.00
2018-05-29T00:57:17.737Z,0.00
2018-05-29T00:58:17.663Z,0.00
2018-05-29T00:59:17.590Z,0.00
2018-05-29T01:00:17.517Z,0.00
2018-05-29T01:01:17.438Z,0.00
2018-05-29T01:02:17.363Z,0.00
2018-05-29T01:03:17.288Z,0.00
2018-05-29T01:04:17.214Z,0.00
2018-05-29T01:05:17.139Z,0.00
2018-05-29T01:06:17.064Z,0.00
2018-05-29T01:07:16.989Z,0.00
2018-05-29T01:08:16.914Z,0.00
2018-05-29T01:09:16.840Z,0.00
2018-05-29T01:10:16.765Z,0.00
2018-05-29T01:11:16.690Z,0.00
2018-05-29T01:12:16.615Z,0.00
2018-05-29T01:13:16.530Z,0.00
2018-05-29T01:14:16.453Z,0.00
2018-05-29T01:15:16.378Z,0.00
2018-05-29T01:16:16.317Z,0.00
2018-05-29T01:17:16.228Z,0.00
2018-05-29T01:18:16.152Z,0.00
2018-05-29T01:19:16.081Z,0.00
2018-05-29T01:20:16.003Z,0.00
2018-05-29T01:21:15.927Z,0.00
2018-05-29T01:22:15.853Z,0.00
2018-05-29T01:23:15.777Z,0.00
2018-05-29T01:24:15.704Z,0.00
2018-05-29T01:25:15.628Z,0.00
2018-05-29T01:26:15.566Z,0.00
2018-05-29T01:27:15.479Z,0.00
2018-05-29T01:28:15.404Z,0.00
2018-05-29T01:29:15.330Z,0.00
2018-05-29T01:30:15.267Z,0.00
2018-05-29T01:31:15.180Z,0.00
2018-05-29T01:32:15.105Z,0.00
2018-05-29T01:33:15.033Z,0.00
2018-05-29T01:34:14.968Z,0.00
2018-05-29T01:35:14.883Z,0.00
2018-05-29T01:36:14.805Z,0.00
2018-05-29T01:37:14.720Z,0.00
2018-05-29T01:38:14.643Z,0.00
2018-05-29T01:39:14.569Z,0.00
2018-05-29T01:40:14.495Z,0.00
2018-05-29T01:41:14.418Z,0.00
2018-05-29T01:42:14.344Z,0.00
2018-05-29T01:43:14.270Z,0.00
2018-05-29T01:44:14.194Z,0.00
2018-05-29T01:45:14.118Z,0.00
2018-05-29T01:46:14.044Z,0.00
2018-05-29T01:47:13.969Z,0.00
2018-05-29T01:48:13.894Z,0.00
2018-05-29T01:49:13.820Z,0.00
2018-05-29T01:50:13.744Z,0.00
2018-05-29T01:51:13.669Z,0.00
2018-05-29T01:52:13.595Z,0.00
2018-05-29T01:53:13.507Z,0.00
2018-05-29T01:54:13.433Z,0.00
2018-05-29T01:55:13.357Z,0.00
2018-05-29T01:56:13.283Z,0.00
2018-05-29T01:57:13.207Z,0.00
2018-05-29T01:58:13.132Z,0.00
2018-05-29T01:59:13.069Z,0.00
2018-05-29T02:00:12.981Z,0.00
2018-05-29T02:01:12.909Z,0.00
2018-05-29T02:02:12.847Z,0.00
2018-05-29T02:03:12.758Z,0.00
2018-05-29T02:04:12.683Z,0.00
2018-05-29T02:05:12.608Z,0.00
2018-05-29T02:06:12.533Z,0.00
2018-05-29T02:07:12.458Z,0.00
2018-05-29T02:08:12.372Z,0.00
2018-05-29T02:09:12.298Z,0.00
2018-05-29T02:10:12.221Z,0.00
2018-05-29T02:11:12.147Z,0.00
2018-05-29T02:12:12.072Z,0.00
2018-05-29T02:13:11.996Z,0.00
2018-05-29T02:14:11.921Z,0.00
2018-05-29T02:15:11.848Z,0.00
2018-05-29T02:16:11.771Z,0.00
2018-05-29T02:17:11.697Z,0.00
2018-05-29T02:18:11.625Z,0.00
2018-05-29T02:19:11.548Z,0.00
2018-05-29T02:20:11.461Z,0.00
2018-05-29T02:21:11.384Z,0.00
2018-05-29T02:22:11.309Z,0.00
2018-05-29T02:23:11.235Z,0.00
2018-05-29T02:24:11.164Z,0.00
2018-05-29T02:25:11.084Z,0.00
2018-05-29T02:26:11.009Z,0.00
2018-05-29T02:27:10.936Z,0.00
2018-05-29T02:28:10.860Z,0.00
2018-05-29T02:29:10.787Z,0.00
2018-05-29T02:30:10.713Z,0.00
2018-05-29T02:31:10.651Z,0.00
2018-05-29T02:32:10.550Z,0.00
2018-05-29T02:33:10.478Z,0.00
2018-05-29T02:34:10.399Z,0.00
2018-05-29T02:35:10.324Z,0.00
2018-05-29T02:36:10.249Z,0.00
2018-05-29T02:37:10.179Z,0.00
2018-05-29T02:38:10.099Z,0.00
2018-05-29T02:39:10.025Z,0.00
2018-05-29T02:40:09.952Z,0.00
2018-05-29T02:41:09.878Z,0.00
2018-05-29T02:42:09.787Z,0.00
2018-05-29T02:43:09.712Z,0.00
2018-05-29T02:44:09.649Z,0.00
2018-05-29T02:45:09.562Z,0.00
2018-05-29T02:46:09.487Z,0.00
2018-05-29T02:47:09.412Z,0.00
2018-05-29T02:48:09.351Z,0.00
2018-05-29T02:49:09.262Z,0.00
2018-05-29T02:50:09.201Z,5.63
2018-05-29T02:51:09.118Z,5.63
2018-05-29T02:52:09.063Z,5.63
2018-05-29T02:53:08.951Z,5.63
2018-05-29T02:54:08.876Z,5.63
2018-05-29T02:55:08.802Z,5.63
2018-05-29T02:56:08.726Z,5.63
2018-05-29T02:57:08.651Z,5.63
2018-05-29T02:58:08.577Z,5.63
2018-05-29T02:59:08.502Z,5.63
2018-05-29T03:00:08.427Z,5.63
2018-05-29T03:01:08.352Z,11.25
2018-05-29T03:02:08.264Z,11.25
2018-05-29T03:03:08.188Z,11.25
2018-05-29T03:04:08.117Z,11.25
2018-05-29T03:05:08.040Z,11.25
2018-05-29T03:06:07.964Z,11.25
2018-05-29T03:07:07.890Z,11.25
2018-05-29T03:08:07.821Z,11.25
2018-05-29T03:09:07.742Z,16.88
2018-05-29T03:10:07.667Z,16.88
2018-05-29T03:11:07.592Z,16.88
2018-05-29T03:12:07.504Z,16.88
2018-05-29T03:13:07.430Z,16.88
2018-05-29T03:14:07.354Z,16.88
2018-05-29T03:15:07.283Z,16.88
2018-05-29T03:16:07.204Z,22.50
2018-05-29T03:17:07.128Z,22.50
2018-05-29T03:18:07.054Z,22.50
2018-05-29T03:19:06.979Z,22.50
2018-05-29T03:20:06.892Z,22.50
2018-05-29T03:21:06.816Z,22.50
2018-05-29T03:22:06.741Z,28.13
2018-05-29T03:23:06.679Z,28.13
2018-05-29T03:24:06.591Z,28.13
2018-05-29T03:25:06.522Z,28.13
2018-05-29T03:26:06.441Z,28.13
2018-05-29T03:27:06.379Z,28.13
2018-05-29T03:28:06.291Z,28.13
2018-05-29T03:29:06.205Z,33.75
2018-05-29T03:30:06.131Z,33.75
2018-05-29T03:31:06.056Z,33.75
2018-05-29T03:32:05.980Z,33.75
2018-05-29T03:33:05.908Z,33.75
2018-05-29T03:34:05.831Z,33.75
2018-05-29T03:35:05.755Z,39.38
2018-05-29T03:36:05.682Z,39.38
2018-05-29T03:37:05.596Z,39.38
2018-05-29T03:38:05.521Z,39.38
2018-05-29T03:39:05.443Z,39.38
2018-05-29T03:40:05.371Z,39.38
2018-05-29T03:41:05.293Z,45.00
2018-05-29T03:42:05.232Z,45.00
2018-05-29T03:43:05.143Z,45.00
2018-05-29T03:44:05.115Z,45.00
2018-05-29T03:45:04.993Z,45.00
2018-05-29T03:46:04.907Z,45.00
2018-05-29T03:47:04.834Z,45.00
2018-05-29T03:48:04.761Z,50.63
2018-05-29T03:49:04.682Z,50.63
2018-05-29T03:50:04.608Z,50.63
2018-05-29T03:51:04.532Z,50.63
2018-05-29T03:52:04.457Z,50.63
2018-05-29T03:53:04.382Z,50.63
2018-05-29T03:54:04.308Z,56.25
2018-05-29T03:55:04.220Z,56.25
2018-05-29T03:56:04.165Z,56.25
2018-05-29T03:57:04.070Z,56.25
2018-05-29T03:58:03.998Z,56.25
2018-05-29T03:59:03.920Z,56.25
2018-05-29T04:00:03.845Z,56.25
2018-05-29T04:01:03.778Z,61.88
2018-05-29T04:02:03.695Z,61.88
2018-05-29T04:03:03.621Z,61.88
2018-05-29T04:04:03.536Z,61.88
2018-05-29T04:05:03.463Z,61.88
2018-05-29T04:06:03.384Z,61.88
2018-05-29T04:07:03.321Z,61.88
2018-05-29T04:08:03.234Z,67.50
2018-05-29T04:09:03.160Z,67.50
2018-05-29T04:10:03.149Z,67.50
2018-05-29T04:11:03.010Z,67.50
2018-05-29T04:12:02.934Z,67.50
2018-05-29T04:13:02.848Z,67.50
2018-05-29T04:14:02.772Z,67.50
2018-05-29T04:15:02.696Z,73.13
2018-05-29T04:16:02.622Z,73.13
2018-05-29T04:17:02.578Z,73.13
2018-05-29T04:18:02.472Z,73.13
2018-05-29T04:19:02.411Z,73.13
2018-05-29T04:20:02.327Z,73.13
2018-05-29T04:21:02.248Z,78.75
2018-05-29T04:22:02.161Z,78.75
2018-05-29T04:23:02.086Z,78.75
2018-05-29T04:24:02.013Z,78.75
2018-05-29T04:25:01.937Z,78.75
2018-05-29T04:26:01.864Z,84.38
2018-05-29T04:27:01.790Z,84.38
2018-05-29T04:28:01.712Z,84.38
2018-05-29T04:29:01.640Z,84.38
2018-05-29T04:30:01.563Z,90.00
2018-05-29T04:31:01.486Z,90.00
2018-05-29T04:32:01.403Z,90.00
2018-05-29T04:33:01.324Z,90.00
2018-05-29T04:34:01.250Z,95.63
2018-05-29T04:35:01.174Z,106.88
2018-05-29T04:36:01.099Z,118.13
2018-05-29T04:37:01.024Z,123.75
2018-05-29T04:38:00.949Z,123.75
2018-05-29T04:39:00.887Z,129.38
2018-05-29T04:40:00.800Z,129.38
2018-05-29T04:41:00.739Z,129.38
2018-05-29T04:42:00.649Z,129.38
2018-05-29T04:43:00.563Z,123.75
2018-05-29T04:44:00.488Z,135.00
2018-05-29T04:45:00.412Z,140.63
2018-05-29T04:46:00.338Z,140.63
2018-05-29T04:47:00.308Z,140.63
2018-05-29T04:48:00.190Z,135.00
2018-05-29T04:49:00.114Z,140.63
2018-05-29T04:50:00.039Z,135.00
2018-05-29T04:50:59.964Z,129.38
2018-05-29T04:51:59.892Z,129.38
2018-05-29T04:52:59.824Z,129.38
2018-05-29T04:53:59.738Z,123.75
2018-05-29T04:54:59.672Z,112.50
2018-05-29T04:55:59.589Z,112.50
2018-05-29T04:56:59.518Z,118.13
2018-05-29T04:57:59.440Z,118.13
2018-05-29T04:58:59.371Z,118.13
2018-05-29T04:59:59.291Z,118.13
2018-05-29T05:00:59.221Z,118.13
2018-05-29T05:01:59.139Z,118.13
2018-05-29T05:02:59.065Z,118.13
2018-05-29T05:03:58.990Z,118.13
2018-05-29T05:04:58.920Z,118.13
2018-05-29T05:05:58.840Z,118.13
2018-05-29T05:06:58.765Z,118.13
2018-05-29T05:07:58.694Z,123.75
2018-05-29T05:08:58.640Z,118.13
2018-05-29T05:09:58.543Z,123.75
2018-05-29T05:10:58.466Z,123.75
2018-05-29T05:11:58.391Z,123.75
2018-05-29T05:12:58.320Z,123.75
2018-05-29T05:13:58.244Z,123.75
2018-05-29T05:14:58.167Z,123.75
2018-05-29T05:15:58.091Z,123.75
2018-05-29T05:16:58.018Z,123.75
2018-05-29T05:17:57.941Z,123.75
2018-05-29T05:18:57.868Z,129.38
2018-05-29T05:19:57.792Z,129.38
2018-05-29T05:20:57.705Z,129.38
2018-05-29T05:21:57.630Z,129.38
2018-05-29T05:22:57.567Z,129.38
2018-05-29T05:23:57.483Z,129.38
2018-05-29T05:24:57.419Z,129.38
2018-05-29T05:25:57.330Z,129.38
2018-05-29T05:26:57.256Z,129.38
2018-05-29T05:27:57.184Z,129.38
2018-05-29T05:28:57.120Z,129.38
2018-05-29T05:29:57.032Z,129.38
2018-05-29T05:30:56.956Z,129.38
2018-05-29T05:31:56.881Z,135.00
2018-05-29T05:32:56.805Z,135.00
2018-05-29T05:33:56.730Z,135.00
2018-05-29T05:34:56.655Z,135.00
2018-05-29T05:35:56.581Z,135.00
2018-05-29T05:36:56.506Z,135.00
2018-05-29T05:37:56.432Z,135.00
2018-05-29T05:38:56.358Z,135.00
2018-05-29T05:39:56.281Z,135.00
2018-05-29T05:40:56.207Z,135.00
2018-05-29T05:41:56.131Z,135.00
2018-05-29T05:42:56.059Z,140.63
2018-05-29T05:43:55.982Z,140.63
2018-05-29T05:44:55.906Z,140.63
2018-05-29T05:45:55.831Z,146.25
2018-05-29T05:46:55.758Z,146.25
2018-05-29T05:47:55.682Z,140.63
2018-05-29T05:48:55.606Z,140.63
2018-05-29T05:49:55.532Z,140.63
2018-05-29T05:50:55.457Z,146.25
2018-05-29T05:51:55.382Z,146.25
2018-05-29T05:52:55.307Z,146.25
2018-05-29T05:53:55.234Z,146.25
2018-05-29T05:54:55.157Z,146.25
2018-05-29T05:55:55.095Z,146.25
2018-05-29T05:56:55.008Z,151.88
2018-05-29T05:57:54.933Z,146.25
2018-05-29T05:58:54.858Z,151.88
2018-05-29T05:59:54.796Z,151.88
2018-05-29T06:00:54.708Z,151.88
2018-05-29T06:01:54.633Z,151.88
2018-05-29T06:02:54.566Z,151.88
2018-05-29T06:03:54.484Z,151.88
2018-05-29T06:04:54.409Z,151.88
2018-05-29T06:05:54.334Z,151.88
2018-05-29T06:06:54.259Z,151.88
2018-05-29T06:07:54.184Z,151.88
2018-05-29T06:08:54.108Z,151.88
2018-05-29T06:09:54.034Z,151.88
2018-05-29T06:10:53.959Z,151.88
2018-05-29T06:11:53.886Z,151.88
2018-05-29T06:12:53.809Z,151.88
2018-05-29T06:13:53.747Z,151.88
2018-05-29T06:14:53.659Z,151.88
2018-05-29T06:15:53.584Z,151.88
2018-05-29T06:16:53.513Z,151.88
2018-05-29T06:17:53.434Z,151.88
2018-05-29T06:18:53.360Z,151.88
2018-05-29T06:19:53.285Z,151.88
2018-05-29T06:20:53.210Z,151.88
2018-05-29T06:21:53.135Z,151.88
2018-05-29T06:22:53.061Z,151.88
2018-05-29T06:23:52.987Z,157.50
2018-05-29T06:24:52.912Z,157.50
2018-05-29T06:25:52.838Z,151.88
2018-05-29T06:26:52.774Z,151.88
2018-05-29T06:27:52.698Z,157.50
2018-05-29T06:28:52.624Z,157.50
2018-05-29T06:29:52.549Z,157.50
2018-05-29T06:30:52.475Z,157.50
2018-05-29T06:31:52.400Z,157.50
2018-05-29T06:32:52.383Z,163.13
2018-05-29T06:33:52.250Z,168.75
2018-05-29T06:34:52.175Z,163.13
2018-05-29T06:35:52.099Z,168.75
2018-05-29T06:36:52.025Z,163.13
2018-05-29T06:37:51.950Z,168.75
2018-05-29T06:38:51.875Z,168.75
2018-05-29T06:39:51.801Z,168.75
2018-05-29T06:40:51.725Z,174.38
2018-05-29T06:41:51.653Z,174.38
2018-05-29T06:42:51.576Z,180.00
2018-05-29T06:43:51.500Z,180.00
2018-05-29T06:44:51.490Z,185.63
2018-05-29T06:45:51.351Z,185.63
2018-05-29T06:46:51.281Z,185.63
2018-05-29T06:47:51.202Z,191.25
2018-05-29T06:48:51.126Z,191.25
2018-05-29T06:49:51.053Z,196.88
2018-05-29T06:50:50.988Z,196.88
2018-05-29T06:51:50.913Z,202.50
2018-05-29T06:52:50.851Z,202.50
2018-05-29T06:53:50.769Z,208.13
2018-05-29T06:54:50.689Z,208.13
2018-05-29T06:55:50.614Z,213.75
2018-05-29T06:56:50.552Z,213.75
2018-05-29T06:57:50.510Z,213.75
2018-05-29T06:58:50.389Z,219.38
2018-05-29T06:59:50.316Z,219.38
2018-05-29T07:00:50.239Z,219.38
2018-05-29T07:01:50.166Z,225.00
2018-05-29T07:02:50.104Z,225.00
2018-05-29T07:03:50.033Z,236.25
2018-05-29T07:04:49.953Z,236.25
2018-05-29T07:05:49.879Z,247.50
2018-05-29T07:06:49.804Z,247.50
2018-05-29T07:07:49.731Z,241.88
2018-05-29T07:08:49.655Z,241.88
2018-05-29T07:09:49.580Z,241.88
2018-05-29T07:10:49.504Z,241.88
2018-05-29T07:11:49.441Z,247.50
2018-05-29T07:12:49.366Z,258.75
2018-05-29T07:13:49.304Z,281.25
2018-05-29T07:14:49.216Z,270.00
2018-05-29T07:15:49.142Z,264.38
2018-05-29T07:16:49.066Z,258.75
2018-05-29T07:17:49.004Z,258.75
2018-05-29T07:18:48.935Z,253.13
2018-05-29T07:19:48.859Z,253.13
2018-05-29T07:20:48.780Z,258.75
2018-05-29T07:21:48.705Z,253.13
2018-05-29T07:22:48.642Z,270.00
2018-05-29T07:23:48.568Z,258.75
2018-05-29T07:24:48.492Z,303.75
2018-05-29T07:25:48.418Z,320.63
2018-05-29T07:26:48.357Z,331.88
2018-05-29T07:27:48.281Z,309.38
2018-05-29T07:28:48.205Z,292.50
2018-05-29T07:29:48.145Z,337.50
2018-05-29T07:30:48.067Z,326.25
2018-05-29T07:31:47.993Z,382.50
2018-05-29T07:32:47.919Z,360.00
2018-05-29T07:33:47.855Z,393.75
2018-05-29T07:34:47.782Z,399.38
2018-05-29T07:35:47.735Z,410.63
2018-05-29T07:36:47.643Z,421.88
2018-05-29T07:37:47.569Z,421.88
2018-05-29T07:38:47.507Z,438.75
2018-05-29T07:39:47.450Z,444.38
2018-05-29T07:40:47.369Z,450.00
2018-05-29T07:41:47.295Z,466.88
2018-05-29T07:42:47.233Z,483.75
2018-05-29T07:43:47.159Z,517.50
2018-05-29T07:44:47.094Z,556.88
2018-05-29T07:45:47.020Z,585.00
2018-05-29T07:46:46.957Z,607.50
2018-05-29T07:47:46.895Z,618.75
2018-05-29T07:48:46.822Z,630.00
2018-05-29T07:49:46.759Z,635.63
2018-05-29T07:50:46.683Z,635.63
2018-05-29T07:51:46.621Z,618.75
2018-05-29T07:52:46.558Z,618.75
2018-05-29T07:53:46.484Z,618.75
2018-05-29T07:54:46.420Z,630.00
2018-05-29T07:55:46.358Z,635.63
2018-05-29T07:56:46.284Z,658.13
2018-05-29T07:57:46.222Z,697.50
2018-05-29T07:58:46.172Z,720.00
2018-05-29T07:59:46.099Z,742.50
2018-05-29T08:00:46.021Z,765.00
2018-05-29T08:01:45.958Z,798.75
2018-05-29T08:02:45.897Z,843.75
2018-05-29T08:03:45.835Z,928.13
2018-05-29T08:04:45.759Z,995.63
2018-05-29T08:05:45.698Z,1085.63
2018-05-29T08:06:45.637Z,1186.88
2018-05-29T08:07:45.571Z,1378.13
2018-05-29T08:08:45.497Z,1614.38
2018-05-29T08:09:45.439Z,1980.00
2018-05-29T08:10:45.372Z,2570.63
2018-05-29T08:11:45.309Z,2874.38
2018-05-29T08:12:45.247Z,3206.25
2018-05-29T08:13:45.172Z,3088.13
2018-05-29T08:14:45.111Z,2790.00
2018-05-29T08:15:45.048Z,2801.25
2018-05-29T08:16:44.986Z,3003.75
2018-05-29T08:17:44.936Z,3088.13
2018-05-29T08:18:44.852Z,3470.63
2018-05-29T08:19:44.798Z,3397.50
2018-05-29T08:20:44.739Z,2868.75
2018-05-29T08:21:44.661Z,2396.25
2018-05-29T08:22:44.599Z,1816.88
2018-05-29T08:23:44.537Z,1237.50
2018-05-29T08:24:44.462Z,765.00
2018-05-29T08:25:44.399Z,613.13
2018-05-29T08:26:44.336Z,556.88
2018-05-29T08:27:44.274Z,506.25
2018-05-29T08:28:44.212Z,500.63
2018-05-29T08:29:44.149Z,500.63
2018-05-29T08:30:44.088Z,500.63
2018-05-29T08:31:44.025Z,500.63
2018-05-29T08:32:43.952Z,500.63
2018-05-29T08:33:43.896Z,506.25
2018-05-29T08:34:43.826Z,506.25
2018-05-29T08:35:43.763Z,506.25
2018-05-29T08:36:43.700Z,511.88
2018-05-29T08:37:43.643Z,511.88
2018-05-29T08:38:43.576Z,523.13
2018-05-29T08:39:43.543Z,523.13
2018-05-29T08:40:43.450Z,528.75
2018-05-29T08:41:43.389Z,540.00
2018-05-29T08:42:43.327Z,545.63
2018-05-29T08:43:43.264Z,556.88
2018-05-29T08:44:43.190Z,562.50
2018-05-29T08:45:43.127Z,568.13
2018-05-29T08:46:43.065Z,579.38
2018-05-29T08:47:43.002Z,596.25
2018-05-29T08:48:42.939Z,613.13
2018-05-29T08:49:42.876Z,630.00
2018-05-29T08:50:42.814Z,652.50
2018-05-29T08:51:42.752Z,675.00
2018-05-29T08:52:42.690Z,697.50
2018-05-29T08:53:42.627Z,720.00
2018-05-29T08:54:42.565Z,731.25
2018-05-29T08:55:42.502Z,742.50
2018-05-29T08:56:42.454Z,753.75
2018-05-29T08:57:42.379Z,765.00
2018-05-29T08:58:42.315Z,776.25
2018-05-29T08:59:42.253Z,787.50
2018-05-29T09:00:42.198Z,798.75
2018-05-29T09:01:42.131Z,804.38
2018-05-29T09:02:42.067Z,815.63
2018-05-29T09:03:42.004Z,832.50
2018-05-29T09:04:41.942Z,849.38
2018-05-29T09:05:41.878Z,877.50
2018-05-29T09:06:41.816Z,933.75
2018-05-29T09:07:41.754Z,990.00
2018-05-29T09:08:41.697Z,1040.63
2018-05-29T09:09:41.628Z,1080.00
2018-05-29T09:10:41.567Z,1102.50
2018-05-29T09:11:41.505Z,1170.00
2018-05-29T09:12:41.444Z,1389.38
2018-05-29T09:13:41.380Z,1755.00
2018-05-29T09:14:41.318Z,2030.63
2018-05-29T09:15:41.268Z,2137.50
2018-05-29T09:16:41.195Z,2176.88
2018-05-29T09:17:41.130Z,2165.63
2018-05-29T09:18:41.068Z,2255.63
2018-05-29T09:19:41.008Z,2238.75
2018-05-29T09:20:40.944Z,2171.25
2018-05-29T09:21:40.893Z,2143.13
2018-05-29T09:22:40.832Z,2131.88
2018-05-29T09:23:40.769Z,2216.25
2018-05-29T09:24:40.705Z,2255.63
2018-05-29T09:25:40.643Z,2255.63
2018-05-29T09:26:40.596Z,2345.63
2018-05-29T09:27:40.519Z,2390.63
2018-05-29T09:28:40.455Z,2452.50
2018-05-29T09:29:40.452Z,2475.00
2018-05-29T09:30:40.331Z,2452.50
2018-05-29T09:31:40.269Z,2413.13
2018-05-29T09:32:40.207Z,2480.63
2018-05-29T09:33:40.145Z,2683.13
2018-05-29T09:34:40.095Z,2998.13
2018-05-29T09:35:40.032Z,3110.63
2018-05-29T09:36:39.970Z,2716.88
2018-05-29T09:37:39.910Z,2604.38
2018-05-29T09:38:39.846Z,2733.75
2018-05-29T09:39:39.783Z,2666.25
2018-05-29T09:40:39.722Z,3386.25
2018-05-29T09:41:39.657Z,3183.75
2018-05-29T09:42:39.599Z,2255.63
2018-05-29T09:43:39.546Z,928.13
2018-05-29T09:44:39.483Z,1355.63
2018-05-29T09:45:39.408Z,534.38
2018-05-29T09:46:39.347Z,399.38
2018-05-29T09:47:39.284Z,624.38
2018-05-29T09:48:39.223Z,1485.00
2018-05-29T09:49:39.158Z,483.75
2018-05-29T09:50:39.103Z,2441.25
2018-05-29T09:51:39.033Z,703.13
2018-05-29T09:52:38.976Z,2250.00
2018-05-29T09:53:38.909Z,1929.38
2018-05-29T09:54:38.836Z,1096.88
2018-05-29T09:55:38.771Z,1929.38
2018-05-29T09:56:38.716Z,2385.00
2018-05-29T09:57:38.648Z,2053.13
2018-05-29T09:58:38.583Z,1378.13
2018-05-29T09:59:38.522Z,2356.88
2018-05-29T10:00:38.448Z,2210.63
2018-05-29T10:01:38.384Z,2649.38
2018-05-29T10:02:38.331Z,2925.00
2018-05-29T10:03:38.260Z,916.88
2018-05-29T10:04:38.199Z,1136.25
2018-05-29T10:05:38.129Z,2649.38
2018-05-29T10:06:38.060Z,2565.00
2018-05-29T10:07:37.998Z,1530.00
2018-05-29T10:08:37.935Z,405.00
2018-05-29T10:09:37.874Z,320.63
2018-05-29T10:10:37.797Z,309.38
2018-05-29T10:11:37.735Z,303.75
2018-05-29T10:12:37.673Z,303.75
2018-05-29T10:13:37.610Z,303.75
2018-05-29T10:14:37.537Z,303.75
2018-05-29T10:15:37.474Z,303.75
2018-05-29T10:16:37.410Z,303.75
2018-05-29T10:17:37.350Z,303.75
2018-05-29T10:18:37.286Z,303.75
2018-05-29T10:19:37.211Z,303.75
2018-05-29T10:20:37.149Z,298.13
2018-05-29T10:21:37.087Z,298.13
2018-05-29T10:22:37.012Z,303.75
2018-05-29T10:23:36.951Z,303.75
2018-05-29T10:24:36.889Z,303.75
2018-05-29T10:25:36.827Z,303.75
2018-05-29T10:26:36.752Z,303.75
2018-05-29T10:27:36.687Z,309.38
2018-05-29T10:28:36.627Z,309.38
2018-05-29T10:29:36.553Z,309.38
2018-05-29T10:30:36.487Z,309.38
2018-05-29T10:31:36.425Z,309.38
2018-05-29T10:32:36.351Z,309.38
2018-05-29T10:33:36.292Z,315.00
2018-05-29T10:34:36.227Z,320.63
2018-05-29T10:35:36.151Z,337.50
2018-05-29T10:36:36.135Z,630.00
2018-05-29T10:37:36.031Z,894.38
2018-05-29T10:38:35.952Z,708.75
2018-05-29T10:39:35.888Z,1591.88
2018-05-29T10:40:35.827Z,1215.00
2018-05-29T10:41:35.752Z,500.63
2018-05-29T10:42:35.689Z,399.38
2018-05-29T10:43:35.627Z,528.75
2018-05-29T10:44:35.553Z,618.75
2018-05-29T10:45:35.489Z,928.13
2018-05-29T10:46:35.416Z,1119.38
2018-05-29T10:47:35.353Z,1282.50
2018-05-29T10:48:35.292Z,1676.25
2018-05-29T10:49:35.228Z,1215.00
2018-05-29T10:50:35.153Z,4989.38
2018-05-29T10:51:35.090Z,6046.88
2018-05-29T10:52:35.055Z,4944.38
2018-05-29T10:53:34.965Z,4601.25
2018-05-29T10:54:34.894Z,4618.13
2018-05-29T10:55:34.830Z,4612.50
2018-05-29T10:56:34.766Z,4708.13
2018-05-29T10:57:34.707Z,4691.25
2018-05-29T10:58:34.643Z,4713.75
2018-05-29T10:59:34.580Z,4578.75
2018-05-29T11:00:34.528Z,4584.38
2018-05-29T11:01:34.454Z,4657.50
2018-05-29T11:02:34.390Z,4612.50
2018-05-29T11:03:34.329Z,4561.88
2018-05-29T11:04:34.266Z,4567.50
2018-05-29T11:05:34.205Z,4826.25
2018-05-29T11:06:34.141Z,4815.00
2018-05-29T11:07:34.082Z,4775.63
2018-05-29T11:08:34.020Z,4674.38
2018-05-29T11:09:33.955Z,4708.13
2018-05-29T11:10:33.893Z,4595.63
2018-05-29T11:11:33.841Z,4646.25
2018-05-29T11:12:33.780Z,4747.50
2018-05-29T11:13:33.725Z,4713.75
2018-05-29T11:14:33.655Z,4612.50
2018-05-29T11:15:33.593Z,4561.88
2018-05-29T11:16:33.530Z,4612.50
2018-05-29T11:17:33.483Z,4736.25
2018-05-29T11:18:33.418Z,4725.00
2018-05-29T11:19:33.356Z,4764.38
2018-05-29T11:20:33.298Z,4764.38
2018-05-29T11:21:33.231Z,4606.88
2018-05-29T11:22:33.180Z,4775.63
2018-05-29T11:23:33.121Z,4871.25
2018-05-29T11:24:33.056Z,4758.75
2018-05-29T11:25:32.999Z,4730.63
2018-05-29T11:26:32.935Z,4753.13
2018-05-29T11:27:32.881Z,4770.00
2018-05-29T11:28:32.819Z,4843.13
2018-05-29T11:29:32.759Z,4708.13
2018-05-29T11:30:32.707Z,4786.88
2018-05-29T11:31:32.643Z,4781.25
2018-05-29T11:32:32.583Z,4775.63
2018-05-29T11:33:32.519Z,4876.88
2018-05-29T11:34:32.460Z,4815.00
2018-05-29T11:35:32.395Z,4640.63
2018-05-29T11:36:32.334Z,4623.75
2018-05-29T11:37:32.283Z,4764.38
2018-05-29T11:38:32.219Z,4854.38
2018-05-29T11:39:32.157Z,4916.25
2018-05-29T11:40:32.110Z,5023.13
2018-05-29T11:41:32.045Z,4899.38
2018-05-29T11:42:32.000Z,4809.38
2018-05-29T11:43:31.934Z,4792.50
2018-05-29T11:44:31.858Z,4696.88
2018-05-29T11:45:31.796Z,4685.63
2018-05-29T11:46:31.746Z,4876.88
2018-05-29T11:47:31.687Z,4961.25
2018-05-29T11:48:31.639Z,4933.13
2018-05-29T11:49:31.559Z,4764.38
2018-05-29T11:50:31.510Z,4865.63
2018-05-29T11:51:31.446Z,4944.38
2018-05-29T11:52:31.386Z,4865.63
2018-05-29T11:53:31.334Z,4798.13
2018-05-29T11:54:31.260Z,4725.00
2018-05-29T11:55:31.210Z,4770.00
2018-05-29T11:56:31.147Z,4691.25
2018-05-29T11:57:31.287Z,4522.50
2018-05-29T11:58:31.022Z,4162.50
2018-05-29T11:59:30.973Z,4027.50
2018-05-29T12:00:30.938Z,4376.25
2018-05-29T12:01:34.085Z,4601.25
2018-05-29T12:02:30.785Z,4584.38
2018-05-29T12:03:30.724Z,4668.75
2018-05-29T12:04:31.085Z,4747.50
2018-05-29T12:07:12.687Z,4601.25
2018-05-29T12:09:36.887Z,4618.13
2018-05-29T12:10:37.838Z,4584.38
2018-05-29T12:11:36.773Z,4561.88
2018-05-29T12:12:36.712Z,4488.75
2018-05-29T12:13:36.649Z,4415.63
2018-05-29T12:14:36.586Z,4404.38
2018-05-29T12:15:36.526Z,4443.75
2018-05-29T12:16:36.474Z,4438.13
2018-05-29T12:17:36.415Z,4410.00
2018-05-29T12:18:36.350Z,4280.63
2018-05-29T12:19:36.288Z,4494.38
2018-05-29T12:20:36.227Z,4550.63
2018-05-29T12:21:36.174Z,4381.88
2018-05-29T12:22:36.113Z,4370.63
2018-05-29T12:23:36.051Z,4421.25
2018-05-29T12:24:35.994Z,4500.00
2018-05-29T12:25:35.925Z,4471.88
2018-05-29T12:26:35.876Z,4466.25
2018-05-29T12:27:35.815Z,4348.13
2018-05-29T12:28:35.750Z,4252.50
2018-05-29T12:29:35.692Z,4331.25
2018-05-29T12:30:35.625Z,4432.50
2018-05-29T12:31:35.580Z,4471.88
2018-05-29T12:32:35.513Z,4455.00
2018-05-29T12:33:35.465Z,4505.63
2018-05-29T12:34:35.393Z,4460.63
2018-05-29T12:35:35.326Z,4213.13
2018-05-29T12:36:35.276Z,3791.25
2018-05-29T12:37:35.215Z,3965.63
2018-05-29T12:38:35.165Z,4466.25